Time;durP1;ratioP1;P1;durP2;ratioP2;P2;SDS_P1;SDS_P2;PMS_P1;PMS_P2;Temp;Humidity;BMP_temperature;BMP_pressure;BME280_temperature;BME280_humidity;BME280_pressure;Samples;Min_cycle;Max_cycle;Signal;HPM_P1;HPM_P2
2023/07/16 00:00:04;;;;;;;4.10;2.15;;;;;;;;;;5071992;28;20122;-81
2023/07/16 00:02:33;;;;;;;4.80;2.10;;;;;;;;;;5055554;28;20553;-81
2023/07/16 00:05:04;;;;;;;3.97;1.95;;;;;;;;;;5085363;28;20032;-81
2023/07/16 00:07:29;;;;;;;5.00;2.30;;;;;;;;;;5042326;28;20039;-81
2023/07/16 00:09:55;;;;;;;3.80;2.17;;;;;;;;;;5085404;28;20036;-81
2023/07/16 00:12:20;;;;;;;3.95;2.10;;;;;;;;;;5048596;28;20056;-80
2023/07/16 00:14:48;;;;;;;5.07;2.20;;;;;;;;;;5053996;28;20036;-81
2023/07/16 00:17:13;;;;;;;;;;;;;;;;;;5086784;28;20074;-81
2023/07/16 00:19:39;;;;;;;4.47;2.17;;;;;;;;;;5060907;28;20363;-81
2023/07/16 00:22:04;;;;;;;4.38;2.28;;;;;;;;;;5038003;28;20031;-81
2023/07/16 00:24:30;;;;;;;5.18;2.45;;;;;;;;;;5041866;28;20122;-80
2023/07/16 00:26:55;;;;;;;4.28;2.20;;;;;;;;;;5035452;28;20491;-80
2023/07/16 00:29:25;;;;;;;3.83;2.60;;;;;;;;;;5061129;28;20059;-80
2023/07/16 00:31:51;;;;;;;5.65;2.10;;;;;;;;;;5058593;28;20029;-81
2023/07/16 00:34:17;;;;;;;4.32;2.30;;;;;;;;;;5056249;28;20429;-81
2023/07/16 00:36:43;;;;;;;4.85;2.53;;;;;;;;;;5068504;28;20111;-81
2023/07/16 00:39:10;;;;;;;3.85;2.38;;;;;;;;;;5043620;28;20141;-81
2023/07/16 00:41:35;;;;;;;4.07;2.47;;;;;;;;;;5055788;28;20560;-81
2023/07/16 00:44:01;;;;;;;4.47;2.50;;;;;;;;;;5069277;28;20086;-81
2023/07/16 00:46:27;;;;;;;5.18;2.50;;;;;;;;;;5058898;28;20534;-80
2023/07/16 00:48:54;;;;;;;4.97;2.65;;;;;;;;;;5046369;28;20115;-81
2023/07/16 00:51:23;;;;;;;5.10;2.35;;;;;;;;;;5068653;28;20059;-82
2023/07/16 00:53:57;;;;;;;4.60;2.45;;;;;;;;;;5049833;28;20039;-82
2023/07/16 00:56:23;;;;;;;6.32;2.45;;;;;;;;;;5063416;28;20040;-82
2023/07/16 00:58:48;;;;;;;5.85;2.85;;;;;;;;;;5054191;28;20556;-82
2023/07/16 01:01:17;;;;;;;4.63;2.80;;;;;;;;;;5046228;28;20036;-81
2023/07/16 01:03:42;;;;;;;5.75;2.63;;;;;;;;;;5052935;28;20119;-83
2023/07/16 01:06:16;;;;;;;5.03;3.05;;;;;;;;;;5055301;28;20151;-82
2023/07/16 01:08:46;;;;;;;5.70;3.13;;;;;;;;;;5038566;28;20040;-82
2023/07/16 01:11:12;;;;;;;5.72;3.42;;;;;;;;;;5057236;28;20058;-82
2023/07/16 01:13:38;;;;;;;5.63;3.25;;;;;;;;;;5069481;28;20031;-82
2023/07/16 01:16:05;;;;;;;5.60;3.70;;;;;;;;;;5065494;28;20035;-82
2023/07/16 01:18:32;;;;;;;7.22;4.10;;;;;;;;;;5043235;28;20109;-82
2023/07/16 01:21:01;;;;;;;5.38;4.00;;;;;;;;;;5054979;28;20037;-82
2023/07/16 01:23:41;;;;;;;6.45;3.92;;;;;;;;;;5079196;28;20036;-81
2023/07/16 01:26:25;;;;;;;6.90;4.00;;;;;;;;;;5065827;28;20029;-81
2023/07/16 01:29:12;;;;;;;5.43;3.80;;;;;;;;;;5062906;28;20033;-81
2023/07/16 01:31:38;;;;;;;4.97;3.80;;;;;;;;;;5057859;28;20051;-81
2023/07/16 01:34:05;;;;;;;5.70;3.60;;;;;;;;;;5059604;28;20040;-82
2023/07/16 01:36:34;;;;;;;4.67;3.37;;;;;;;;;;5048685;28;20490;-81
2023/07/16 01:39:01;;;;;;;7.05;3.72;;;;;;;;;;5069439;28;20032;-81
2023/07/16 01:41:29;;;;;;;5.68;3.50;;;;;;;;;;5053857;28;20115;-81
2023/07/16 01:43:55;;;;;;;4.70;3.13;;;;;;;;;;5054770;28;20052;-81
2023/07/16 01:46:20;;;;;;;4.70;3.50;;;;;;;;;;5053009;28;20067;-81
2023/07/16 01:48:46;;;;;;;5.90;3.47;;;;;;;;;;5054475;28;20101;-82
2023/07/16 01:51:21;;;;;;;5.13;3.22;;;;;;;;;;5055302;28;20407;-80
2023/07/16 01:53:47;;;;;;;4.80;3.35;;;;;;;;;;5047208;28;20037;-81
2023/07/16 01:56:13;;;;;;;6.25;3.45;;;;;;;;;;5038973;28;20501;-81
2023/07/16 01:58:42;;;;;;;4.72;3.13;;;;;;;;;;5053744;28;20117;-80
2023/07/16 02:01:08;;;;;;;4.85;2.75;;;;;;;;;;5057528;28;20039;-81
2023/07/16 02:03:33;;;;;;;5.38;2.85;;;;;;;;;;5068934;28;20025;-81
2023/07/16 02:05:58;;;;;;;4.05;2.78;;;;;;;;;;5055024;28;20043;-81
2023/07/16 02:08:24;;;;;;;4.30;2.53;;;;;;;;;;5068520;28;20032;-80
2023/07/16 02:10:50;;;;;;;5.07;2.65;;;;;;;;;;5038773;28;20138;-81
2023/07/16 02:13:16;;;;;;;4.70;2.50;;;;;;;;;;5062511;28;20046;-81
2023/07/16 02:15:43;;;;;;;3.97;2.28;;;;;;;;;;5060245;28;20036;-81
2023/07/16 02:18:09;;;;;;;5.45;2.53;;;;;;;;;;5069569;28;20042;-81
2023/07/16 02:20:35;;;;;;;4.55;2.38;;;;;;;;;;5063969;28;20036;-81
2023/07/16 02:23:03;;;;;;;4.15;2.55;;;;;;;;;;5058462;28;20492;-80
2023/07/16 02:25:28;;;;;;;5.85;2.78;;;;;;;;;;5055362;28;20036;-80
2023/07/16 02:27:54;;;;;;;4.45;2.83;;;;;;;;;;5069968;28;20028;-81
2023/07/16 02:30:19;;;;;;;5.18;3.30;;;;;;;;;;5044424;28;20851;-80
2023/07/16 02:32:45;;;;;;;6.18;3.20;;;;;;;;;;5070847;28;20528;-79
2023/07/16 02:35:10;;;;;;;4.57;3.20;;;;;;;;;;5055121;28;20132;-80
2023/07/16 02:37:36;;;;;;;6.80;2.92;;;;;;;;;;5058421;28;20027;-80
2023/07/16 02:40:02;;;;;;;6.70;3.10;;;;;;;;;;5056352;28;20028;-80
2023/07/16 02:42:28;;;;;;;6.90;3.33;;;;;;;;;;5053669;28;20043;-80
2023/07/16 02:44:53;;;;;;;5.07;3.22;;;;;;;;;;5049522;28;20035;-78
2023/07/16 02:47:21;;;;;;;5.65;3.20;;;;;;;;;;5061542;28;20152;-78
2023/07/16 02:49:46;;;;;;;;;;;;;;;;;;5059822;28;20040;-79
2023/07/16 02:52:11;;;;;;;5.00;3.05;;;;;;;;;;5063809;28;19935;-79
2023/07/16 02:54:37;;;;;;;5.00;3.20;;;;;;;;;;5056237;28;20036;-79
2023/07/16 02:57:03;;;;;;;6.75;3.50;;;;;;;;;;5051214;28;20032;-79
2023/07/16 02:59:28;;;;;;;7.10;3.67;;;;;;;;;;5046878;28;20082;-79
2023/07/16 03:01:54;;;;;;;5.25;3.20;;;;;;;;;;5031241;28;20029;-80
2023/07/16 03:04:22;;;;;;;5.22;3.20;;;;;;;;;;5059675;28;25017;-79
2023/07/16 03:06:47;;;;;;;5.85;3.28;;;;;;;;;;5055800;28;20105;-80
2023/07/16 03:09:13;;;;;;;4.05;2.47;;;;;;;;;;5067953;28;20024;-80
2023/07/16 03:11:43;;;;;;;4.13;2.78;;;;;;;;;;5049400;28;20526;-79
2023/07/16 03:14:08;;;;;;;5.35;3.33;;;;;;;;;;5069623;28;20032;-79
2023/07/16 03:16:33;;;;;;;5.28;2.80;;;;;;;;;;5021016;28;20039;-80
2023/07/16 03:19:05;;;;;;;6.53;3.00;;;;;;;;;;5049974;28;20036;-80
2023/07/16 03:21:31;;;;;;;5.70;3.15;;;;;;;;;;5052772;28;20042;-81
2023/07/16 03:23:56;;;;;;;5.75;3.00;;;;;;;;;;5056186;28;20143;-81
2023/07/16 03:26:22;;;;;;;5.07;2.85;;;;;;;;;;5074428;28;20039;-80
2023/07/16 03:28:47;;;;;;;4.70;2.55;;;;;;;;;;5045621;28;20430;-80
2023/07/16 03:31:13;;;;;;;3.60;2.40;;;;;;;;;;5063638;28;20548;-80
2023/07/16 03:33:38;;;;;;;3.95;2.45;;;;;;;;;;5055271;28;20032;-80
2023/07/16 03:36:04;;;;;;;4.72;2.47;;;;;;;;;;5053003;28;20032;-80
2023/07/16 03:38:29;;;;;;;4.82;2.80;;;;;;;;;;5059104;28;20467;-79
2023/07/16 03:40:54;;;;;;;5.03;2.50;;;;;;;;;;5051624;28;20039;-79
2023/07/16 03:43:20;;;;;;;4.70;2.35;;;;;;;;;;5062790;28;20045;-80
2023/07/16 03:45:45;;;;;;;4.57;2.60;;;;;;;;;;5047976;28;20569;-80
2023/07/16 03:48:11;;;;;;;3.55;2.30;;;;;;;;;;5059692;28;20036;-80
2023/07/16 03:50:36;;;;;;;3.97;2.25;;;;;;;;;;5049740;28;20071;-80
2023/07/16 03:53:03;;;;;;;3.80;2.15;;;;;;;;;;5060052;28;20111;-80
2023/07/16 03:55:28;;;;;;;5.40;2.30;;;;;;;;;;5065388;28;20114;-80
2023/07/16 03:57:56;;;;;;;4.15;2.33;;;;;;;;;;5053821;28;20040;-80
2023/07/16 04:00:22;;;;;;;5.32;2.30;;;;;;;;;;5058782;28;20129;-80
2023/07/16 04:02:47;;;;;;;4.85;2.63;;;;;;;;;;5053363;28;20063;-80
2023/07/16 04:05:13;;;;;;;5.05;2.30;;;;;;;;;;5076401;28;20108;-80
2023/07/16 04:07:38;;;;;;;4.40;2.72;;;;;;;;;;5046326;28;20122;-80
2023/07/16 04:10:04;;;;;;;5.63;2.45;;;;;;;;;;5055741;28;20061;-80
2023/07/16 04:12:30;;;;;;;3.90;2.50;;;;;;;;;;5051324;28;20044;-80
2023/07/16 04:14:59;;;;;;;6.00;2.78;;;;;;;;;;5049647;28;20700;-80
2023/07/16 04:17:25;;;;;;;4.22;2.45;;;;;;;;;;5048762;28;20030;-80
2023/07/16 04:19:50;;;;;;;6.60;3.08;;;;;;;;;;5054764;28;20044;-80
2023/07/16 04:22:16;;;;;;;5.15;2.80;;;;;;;;;;5067848;28;20146;-81
2023/07/16 04:24:41;;;;;;;5.90;3.50;;;;;;;;;;5056034;28;20119;-81
2023/07/16 04:27:07;;;;;;;4.72;2.70;;;;;;;;;;5055344;28;20430;-80
2023/07/16 04:29:32;;;;;;;4.45;2.70;;;;;;;;;;5053161;28;20475;-80
2023/07/16 04:31:58;;;;;;;4.15;2.50;;;;;;;;;;5055450;28;20065;-81
2023/07/16 04:34:23;;;;;;;4.05;2.53;;;;;;;;;;5051417;28;20036;-81
2023/07/16 04:36:49;;;;;;;5.47;2.53;;;;;;;;;;5054504;28;20085;-80
2023/07/16 04:39:14;;;;;;;4.63;2.70;;;;;;;;;;5068402;28;20554;-80
2023/07/16 04:41:40;;;;;;;5.80;2.85;;;;;;;;;;5065704;28;20465;-80
2023/07/16 04:44:05;;;;;;;4.50;2.88;;;;;;;;;;5055698;28;20066;-80
2023/07/16 04:46:31;;;;;;;6.05;3.08;;;;;;;;;;5054726;28;20380;-80
2023/07/16 04:48:57;;;;;;;6.65;3.40;;;;;;;;;;5054742;28;20541;-80
2023/07/16 04:51:22;;;;;;;5.40;3.35;;;;;;;;;;5065915;28;20051;-80
2023/07/16 04:53:48;;;;;;;4.70;3.30;;;;;;;;;;5052343;28;20039;-80
2023/07/16 04:56:14;;;;;;;4.93;2.78;;;;;;;;;;5054515;28;20075;-80
2023/07/16 04:58:39;;;;;;;4.82;2.88;;;;;;;;;;5048788;28;20068;-80
2023/07/16 05:01:05;;;;;;;4.78;3.10;;;;;;;;;;5044250;28;20511;-80
2023/07/16 05:03:30;;;;;;;5.18;3.10;;;;;;;;;;5054919;28;20048;-81
2023/07/16 05:05:56;;;;;;;4.68;3.28;;;;;;;;;;5055683;28;20032;-81
2023/07/16 05:08:26;;;;;;;4.97;3.10;;;;;;;;;;5057938;28;20059;-82
2023/07/16 05:10:52;;;;;;;5.85;3.38;;;;;;;;;;5055101;28;20078;-81
2023/07/16 05:13:17;;;;;;;4.55;3.05;;;;;;;;;;5067879;28;20452;-80
2023/07/16 05:15:45;;;;;;;6.05;3.78;;;;;;;;;;5055859;28;20108;-81
2023/07/16 05:18:10;;;;;;;5.00;3.20;;;;;;;;;;5066352;28;20043;-80
2023/07/16 05:20:36;;;;;;;4.45;3.17;;;;;;;;;;5049718;28;20028;-81
2023/07/16 05:23:01;;;;;;;4.65;3.13;;;;;;;;;;5068368;28;20039;-82
2023/07/16 05:25:35;;;;;;;4.85;3.28;;;;;;;;;;5070665;28;20046;-80
2023/07/16 05:28:01;;;;;;;5.97;3.42;;;;;;;;;;5051297;28;20036;-80
2023/07/16 05:30:27;;;;;;;5.70;2.92;;;;;;;;;;5050684;28;20077;-80
2023/07/16 05:32:52;;;;;;;4.57;2.90;;;;;;;;;;5045266;28;20536;-80
2023/07/16 05:35:18;;;;;;;4.45;2.83;;;;;;;;;;5056129;28;20585;-79
2023/07/16 05:37:43;;;;;;;5.18;2.50;;;;;;;;;;5043666;28;20403;-80
2023/07/16 05:40:09;;;;;;;4.82;2.67;;;;;;;;;;5053929;28;20371;-81
2023/07/16 05:42:37;;;;;;;5.22;2.85;;;;;;;;;;5067663;28;20042;-81
2023/07/16 05:45:03;;;;;;;5.22;2.70;;;;;;;;;;5067109;28;20083;-80
2023/07/16 05:47:30;;;;;;;5.40;3.20;;;;;;;;;;5051706;28;20063;-81
2023/07/16 05:49:55;;;;;;;4.40;2.58;;;;;;;;;;5056043;28;20077;-80
2023/07/16 05:52:24;;;;;;;7.40;2.70;;;;;;;;;;5051943;28;20479;-82
2023/07/16 05:54:49;;;;;;;4.55;2.47;;;;;;;;;;5056110;28;20498;-82
2023/07/16 05:57:19;;;;;;;4.38;2.70;;;;;;;;;;5045901;28;20101;-81
2023/07/16 05:59:44;;;;;;;5.05;2.60;;;;;;;;;;5084782;28;20399;-79
2023/07/16 06:02:10;;;;;;;5.20;2.50;;;;;;;;;;5069722;28;20036;-80
2023/07/16 06:04:40;;;;;;;4.13;2.60;;;;;;;;;;5048078;28;20036;-80
2023/07/16 06:07:06;;;;;;;3.78;2.38;;;;;;;;;;5058264;28;20621;-81
2023/07/16 06:09:32;;;;;;;4.57;2.30;;;;;;;;;;5063140;28;20040;-81
2023/07/16 06:12:01;;;;;;;4.05;2.25;;;;;;;;;;5044317;28;20064;-81
2023/07/16 06:14:26;;;;;;;4.05;2.28;;;;;;;;;;5047766;28;20055;-81
2023/07/16 06:16:52;;;;;;;3.85;2.40;;;;;;;;;;5068941;28;20067;-81
2023/07/16 06:19:20;;;;;;;4.55;2.25;;;;;;;;;;5069977;28;20088;-82
2023/07/16 06:21:46;;;;;;;4.00;2.20;;;;;;;;;;5066197;28;20039;-82
2023/07/16 06:24:11;;;;;;;3.67;2.10;;;;;;;;;;5071455;28;20395;-81
2023/07/16 06:26:37;;;;;;;3.20;2.00;;;;;;;;;;5043194;28;20422;-82
2023/07/16 06:29:02;;;;;;;3.38;2.17;;;;;;;;;;5059627;28;20101;-82
2023/07/16 06:31:28;;;;;;;3.20;2.03;;;;;;;;;;5047833;28;20067;-81
2023/07/16 06:33:53;;;;;;;3.63;1.95;;;;;;;;;;5057078;28;20487;-82
2023/07/16 06:36:20;;;;;;;6.15;2.30;;;;;;;;;;5055637;28;20066;-81
2023/07/16 06:38:46;;;;;;;3.88;1.98;;;;;;;;;;5058065;28;20040;-83
2023/07/16 06:41:12;;;;;;;4.32;2.25;;;;;;;;;;5052055;28;20028;-81
2023/07/16 06:43:46;;;;;;;4.07;2.05;;;;;;;;;;5056888;28;20032;-82
2023/07/16 06:46:11;;;;;;;4.03;2.28;;;;;;;;;;5035856;28;20036;-82
2023/07/16 06:48:37;;;;;;;4.18;1.92;;;;;;;;;;5054321;28;20043;-82
2023/07/16 06:51:16;;;;;;;5.10;2.40;;;;;;;;;;5056804;28;20051;-82
2023/07/16 06:53:43;;;;;;;3.10;1.88;;;;;;;;;;5056378;28;20085;-81
2023/07/16 06:56:08;;;;;;;3.70;1.90;;;;;;;;;;5051949;28;20403;-82
2023/07/16 06:58:45;;;;;;;4.38;2.00;;;;;;;;;;5049694;28;20085;-81
2023/07/16 07:01:10;;;;;;;4.10;1.85;;;;;;;;;;5046755;28;20051;-82
2023/07/16 07:03:36;;;;;;;3.70;1.90;;;;;;;;;;5050745;28;20036;-82
2023/07/16 07:06:03;;;;;;;4.22;2.05;;;;;;;;;;5055775;28;20055;-82
2023/07/16 07:08:29;;;;;;;5.07;2.05;;;;;;;;;;5019041;28;20037;-82
2023/07/16 07:10:54;;;;;;;3.63;1.83;;;;;;;;;;5042014;28;20024;-81
2023/07/16 07:13:20;;;;;;;4.32;1.92;;;;;;;;;;5049247;28;20032;-81
2023/07/16 07:15:46;;;;;;;3.50;1.70;;;;;;;;;;5057498;28;20369;-83
2023/07/16 07:18:11;;;;;;;4.10;1.90;;;;;;;;;;5055924;28;20032;-81
2023/07/16 07:20:37;;;;;;;3.60;1.80;;;;;;;;;;5053491;28;20139;-82
2023/07/16 07:23:22;;;;;;;4.05;1.83;;;;;;;;;;5050093;28;20043;-82
2023/07/16 07:25:51;;;;;;;2.97;1.80;;;;;;;;;;4964169;28;20038;-81
2023/07/16 07:28:20;;;;;;;4.20;1.90;;;;;;;;;;4947086;28;20069;-82
2023/07/16 07:30:46;;;;;;;4.05;1.65;;;;;;;;;;4941109;28;20499;-81
2023/07/16 07:33:12;;;;;;;4.05;1.70;;;;;;;;;;4961195;28;20054;-80
2023/07/16 07:35:37;;;;;;;3.63;1.73;;;;;;;;;;4956136;28;20862;-79
2023/07/16 07:38:03;;;;;;;3.53;1.92;;;;;;;;;;4963369;28;20035;-80
2023/07/16 07:40:28;;;;;;;3.95;1.80;;;;;;;;;;4965764;28;20138;-83
2023/07/16 07:42:54;;;;;;;3.58;1.75;;;;;;;;;;4971430;28;20405;-82
2023/07/16 07:45:22;;;;;;;4.30;1.75;;;;;;;;;;4955138;28;20054;-84
2023/07/16 07:47:52;;;;;;;3.78;2.00;;;;;;;;;;4962079;28;20070;-83
2023/07/16 07:50:17;;;;;;;3.50;1.75;;;;;;;;;;4962087;28;20048;-83
2023/07/16 07:52:43;;;;;;;3.22;1.70;;;;;;;;;;4969832;28;20042;-80
2023/07/16 07:55:08;;;;;;;4.80;1.55;;;;;;;;;;4975592;28;20041;-81
2023/07/16 07:57:34;;;;;;;3.63;1.98;;;;;;;;;;4969025;28;20049;-81
2023/07/16 08:00:03;;;;;;;3.53;1.70;;;;;;;;;;4972680;28;20545;-81
2023/07/16 08:02:28;;;;;;;4.65;2.08;;;;;;;;;;4966903;28;20035;-81
2023/07/16 08:04:54;;;;;;;3.25;1.52;;;;;;;;;;5040014;28;20033;-81
2023/07/16 08:07:21;;;;;;;4.85;1.70;;;;;;;;;;5032444;28;20041;-82
2023/07/16 08:09:47;;;;;;;3.25;1.70;;;;;;;;;;5048913;28;20388;-83
2023/07/16 08:12:13;;;;;;;3.83;1.50;;;;;;;;;;5027442;28;20109;-82
2023/07/16 08:14:38;;;;;;;2.88;1.30;;;;;;;;;;5049972;28;20085;-81
2023/07/16 08:17:17;;;;;;;3.00;1.50;;;;;;;;;;5040185;28;20035;-83
2023/07/16 08:19:43;;;;;;;3.65;1.50;;;;;;;;;;5034906;28;20094;-81
2023/07/16 08:22:08;;;;;;;3.85;1.30;;;;;;;;;;5033796;28;20032;-82
2023/07/16 08:24:52;;;;;;;3.13;1.30;;;;;;;;;;5052812;28;20088;-82
2023/07/16 08:27:18;;;;;;;4.22;1.30;;;;;;;;;;5048543;28;20056;-83
2023/07/16 08:29:44;;;;;;;4.15;1.20;;;;;;;;;;5055546;28;20441;-82
2023/07/16 08:32:09;;;;;;;3.38;1.10;;;;;;;;;;5041067;28;20040;-82
2023/07/16 08:34:35;;;;;;;2.80;1.17;;;;;;;;;;5063465;28;20051;-82
2023/07/16 08:37:00;;;;;;;3.70;1.58;;;;;;;;;;5066749;28;20020;-82
2023/07/16 08:39:26;;;;;;;2.80;1.15;;;;;;;;;;5043345;28;20040;-83
2023/07/16 08:41:52;;;;;;;3.05;1.30;;;;;;;;;;5052861;28;20089;-82
2023/07/16 08:44:17;;;;;;;4.07;1.30;;;;;;;;;;5054394;28;20086;-84
2023/07/16 08:46:42;;;;;;;3.92;1.27;;;;;;;;;;5050425;28;20040;-81
2023/07/16 08:49:08;;;;;;;3.00;1.30;;;;;;;;;;5065461;28;20413;-81
2023/07/16 08:51:35;;;;;;;2.90;1.38;;;;;;;;;;5048487;28;20032;-83
2023/07/16 08:54:00;;;;;;;2.72;1.25;;;;;;;;;;5058961;28;20046;-81
2023/07/16 08:56:29;;;;;;;3.08;1.33;;;;;;;;;;5052412;28;20035;-81
2023/07/16 08:58:58;;;;;;;3.10;1.17;;;;;;;;;;5046782;28;20032;-81
2023/07/16 09:01:23;;;;;;;3.17;1.23;;;;;;;;;;5069270;28;20039;-81
2023/07/16 09:03:49;;;;;;;4.82;1.40;;;;;;;;;;5060131;28;20631;-82
2023/07/16 09:06:20;;;;;;;3.30;1.33;;;;;;;;;;5053074;28;20036;-83
2023/07/16 09:09:58;;;;;;;;;;;;;;;;;;;;;
2023/07/16 09:20:46;;;;;;;3.97;1.50;;;;;;;;;;5060319;28;20050;-86
2023/07/16 09:37:50;;;;;;;4.30;1.35;;;;;;;;;;4935130;28;20038;-85
2023/07/16 09:57:42;;;;;;;3.83;1.10;;;;;;;;;;4876816;28;20131;-84
2023/07/16 10:00:15;;;;;;;3.65;1.20;;;;;;;;;;4928265;28;20102;-86
2023/07/16 10:02:41;;;;;;;5.47;1.20;;;;;;;;;;4996749;28;20117;-86
2023/07/16 10:05:19;;;;;;;4.63;1.80;;;;;;;;;;4984412;28;20660;-85
2023/07/16 10:07:58;;;;;;;3.05;1.00;;;;;;;;;;4973926;28;20038;-86
2023/07/16 10:10:38;;;;;;;3.08;1.10;;;;;;;;;;4992388;28;20042;-85
2023/07/16 10:13:31;;;;;;;3.83;1.10;;;;;;;;;;4984404;28;20760;-84
2023/07/16 10:15:58;;;;;;;4.53;1.35;;;;;;;;;;4978782;28;20058;-89
2023/07/16 10:18:35;;;;;;;2.63;1.10;;;;;;;;;;4964784;28;20145;-88
2023/07/16 10:21:07;;;;;;;3.33;1.15;;;;;;;;;;4966845;28;20046;-84
2023/07/16 10:23:41;;;;;;;2.80;1.10;;;;;;;;;;4952857;28;20406;-84
2023/07/16 10:26:09;;;;;;;4.07;1.20;;;;;;;;;;4980094;28;20075;-85
2023/07/16 10:28:50;;;;;;;3.30;1.23;;;;;;;;;;5003488;28;20138;-84
2023/07/16 10:31:21;;;;;;;4.50;1.30;;;;;;;;;;4974986;28;20034;-84
2023/07/16 10:34:04;;;;;;;3.30;1.10;;;;;;;;;;4967360;28;20042;-83
2023/07/16 10:36:36;;;;;;;4.13;1.50;;;;;;;;;;4987809;28;20030;-82
2023/07/16 10:39:03;;;;;;;4.55;1.33;;;;;;;;;;4991467;28;20721;-84
2023/07/16 10:41:30;;;;;;;3.30;1.30;;;;;;;;;;4990952;28;20046;-85
2023/07/16 10:43:58;;;;;;;3.58;1.50;;;;;;;;;;4970345;28;20141;-85
2023/07/16 10:46:24;;;;;;;2.72;1.27;;;;;;;;;;4994987;28;20042;-81
2023/07/16 10:48:49;;;;;;;4.60;1.48;;;;;;;;;;4983494;28;20041;-85
2023/07/16 10:51:23;;;;;;;3.88;1.48;;;;;;;;;;4996290;28;20034;-81
2023/07/16 10:53:49;;;;;;;3.58;1.55;;;;;;;;;;5063159;28;20057;-87
2023/07/16 10:56:14;;;;;;;4.50;1.50;;;;;;;;;;5050240;28;20043;-86
2023/07/16 10:58:41;;;;;;;4.30;1.48;;;;;;;;;;5066645;28;20539;-86
2023/07/16 11:01:12;;;;;;;3.10;1.30;;;;;;;;;;5062334;28;20028;-86
2023/07/16 11:03:40;;;;;;;4.07;1.30;;;;;;;;;;5066133;28;20086;-86
2023/07/16 11:06:08;;;;;;;2.67;1.27;;;;;;;;;;5062348;28;20036;-86
2023/07/16 11:08:33;;;;;;;2.95;1.15;;;;;;;;;;5063540;28;20036;-86
2023/07/16 11:11:00;;;;;;;3.75;1.30;;;;;;;;;;5049505;28;20036;-87
2023/07/16 11:13:31;;;;;;;3.90;1.50;;;;;;;;;;5048828;28;20032;-87
2023/07/16 11:15:57;;;;;;;4.05;1.38;;;;;;;;;;5058638;28;20078;-87
2023/07/16 11:18:24;;;;;;;4.10;1.30;;;;;;;;;;5064863;28;20072;-86
2023/07/16 11:20:53;;;;;;;4.15;1.40;;;;;;;;;;5065550;28;20068;-86
2023/07/16 11:23:18;;;;;;;3.30;1.55;;;;;;;;;;5058859;28;20028;-86
2023/07/16 11:25:51;;;;;;;5.95;1.50;;;;;;;;;;5057445;28;20114;-85
2023/07/16 11:28:17;;;;;;;4.30;1.60;;;;;;;;;;5068253;28;20043;-86
2023/07/16 11:30:42;;;;;;;3.63;1.45;;;;;;;;;;5074256;28;20411;-86
2023/07/16 11:33:12;;;;;;;4.68;1.70;;;;;;;;;;5066789;28;20032;-86
2023/07/16 11:35:38;;;;;;;2.72;1.30;;;;;;;;;;5063300;28;20067;-86
2023/07/16 11:38:07;;;;;;;2.38;1.00;;;;;;;;;;5059090;28;20035;-87
2023/07/16 11:40:35;;;;;;;3.25;1.10;;;;;;;;;;5057178;28;20046;-87
2023/07/16 11:43:11;;;;;;;2.25;1.00;;;;;;;;;;5047262;28;20426;-87
2023/07/16 11:45:36;;;;;;;2.92;1.00;;;;;;;;;;5065153;28;20515;-86
2023/07/16 11:48:04;;;;;;;3.10;1.27;;;;;;;;;;5060116;28;20040;-86
2023/07/16 11:50:31;;;;;;;3.80;1.00;;;;;;;;;;5044471;28;20024;-86
2023/07/16 11:53:01;;;;;;;4.18;1.40;;;;;;;;;;5062518;28;20028;-88
2023/07/16 11:55:27;;;;;;;3.45;1.20;;;;;;;;;;5062723;28;20509;-85
2023/07/16 11:57:52;;;;;;;3.57;1.47;;;;;;;;;;5073057;28;20074;-85
2023/07/16 12:00:18;;;;;;;2.77;1.03;;;;;;;;;;5057059;28;20118;-85
2023/07/16 12:02:50;;;;;;;3.08;1.05;;;;;;;;;;5055499;28;20035;-86
2023/07/16 12:05:17;;;;;;;4.47;1.10;;;;;;;;;;5054546;28;20032;-85
2023/07/16 12:07:43;;;;;;;3.92;1.05;;;;;;;;;;5065355;28;20032;-85
2023/07/16 12:10:08;;;;;;;4.32;1.27;;;;;;;;;;5062656;28;20518;-85
2023/07/16 12:12:37;;;;;;;4.32;1.20;;;;;;;;;;5065559;28;20044;-85
2023/07/16 12:15:04;;;;;;;5.30;1.40;;;;;;;;;;5063771;28;20044;-85
2023/07/16 12:17:29;;;;;;;2.40;1.00;;;;;;;;;;5074015;28;20545;-85
2023/07/16 12:19:54;;;;;;;3.65;1.20;;;;;;;;;;5077021;28;20040;-85
2023/07/16 12:22:20;;;;;;;3.67;1.10;;;;;;;;;;5058364;28;20040;-85
2023/07/16 12:24:46;;;;;;;3.95;1.30;;;;;;;;;;5063034;28;20037;-86
2023/07/16 12:27:12;;;;;;;3.05;1.20;;;;;;;;;;5054962;28;20032;-85
2023/07/16 12:29:37;;;;;;;3.08;1.20;;;;;;;;;;5057520;28;20130;-86
2023/07/16 12:32:03;;;;;;;4.32;1.23;;;;;;;;;;5062601;28;20076;-85
2023/07/16 12:34:28;;;;;;;4.68;1.30;;;;;;;;;;5074382;28;20036;-85
2023/07/16 12:36:55;;;;;;;5.68;1.23;;;;;;;;;;5064738;28;20072;-84
2023/07/16 12:39:21;;;;;;;3.75;1.10;;;;;;;;;;5051864;28;20037;-85
2023/07/16 12:41:51;;;;;;;3.13;1.20;;;;;;;;;;5060025;28;20063;-85
2023/07/16 12:44:16;;;;;;;5.07;1.50;;;;;;;;;;5052923;28;20075;-86
2023/07/16 12:46:42;;;;;;;5.03;1.40;;;;;;;;;;5060253;28;20048;-85
2023/07/16 12:49:13;;;;;;;3.92;1.10;;;;;;;;;;5062527;28;20040;-85
2023/07/16 12:51:39;;;;;;;3.70;1.52;;;;;;;;;;5037556;28;20076;-86
2023/07/16 12:54:05;;;;;;;3.25;1.20;;;;;;;;;;5070364;28;20036;-86
2023/07/16 12:56:32;;;;;;;3.10;1.13;;;;;;;;;;5064074;28;20029;-85
2023/07/16 12:58:58;;;;;;;4.38;1.50;;;;;;;;;;5071950;28;20036;-85
2023/07/16 13:01:23;;;;;;;3.58;1.35;;;;;;;;;;5063431;28;20467;-85
2023/07/16 13:03:53;;;;;;;6.95;1.40;;;;;;;;;;5065327;28;20029;-86
2023/07/16 13:06:21;;;;;;;3.88;1.10;;;;;;;;;;5049679;28;20052;-85
2023/07/16 13:08:47;;;;;;;4.43;1.10;;;;;;;;;;5063919;28;20032;-86
2023/07/16 13:11:12;;;;;;;3.85;1.38;;;;;;;;;;5059048;28;20455;-86
2023/07/16 13:13:38;;;;;;;4.20;1.40;;;;;;;;;;5056026;28;20036;-85
2023/07/16 13:16:04;;;;;;;4.65;1.30;;;;;;;;;;5063369;28;20040;-85
2023/07/16 13:18:30;;;;;;;3.05;1.20;;;;;;;;;;5066343;28;20123;-85
2023/07/16 13:21:01;;;;;;;3.40;1.23;;;;;;;;;;5053039;28;20112;-86
2023/07/16 13:23:26;;;;;;;2.90;1.30;;;;;;;;;;5058352;28;20036;-85
2023/07/16 13:25:52;;;;;;;3.50;1.20;;;;;;;;;;5064917;28;20032;-83
2023/07/16 13:28:18;;;;;;;2.95;1.17;;;;;;;;;;5064174;28;20395;-85
2023/07/16 13:30:43;;;;;;;2.83;1.00;;;;;;;;;;5052388;28;20710;-84
2023/07/16 13:33:09;;;;;;;2.72;1.00;;;;;;;;;;5065272;28;20036;-85
2023/07/16 13:35:34;;;;;;;2.80;1.10;;;;;;;;;;5059077;28;20041;-84
2023/07/16 13:38:01;;;;;;;5.10;1.30;;;;;;;;;;5055279;28;20441;-85
2023/07/16 13:40:26;;;;;;;3.65;1.30;;;;;;;;;;5064377;28;20032;-85
2023/07/16 13:42:53;;;;;;;2.20;0.90;;;;;;;;;;5065071;28;20052;-88
2023/07/16 13:45:19;;;;;;;3.15;1.00;;;;;;;;;;5066525;28;21200;-85
2023/07/16 13:47:45;;;;;;;4.03;1.10;;;;;;;;;;5056698;28;20037;-85
2023/07/16 13:50:10;;;;;;;4.97;1.30;;;;;;;;;;5065581;28;20033;-85
2023/07/16 13:52:36;;;;;;;4.78;1.00;;;;;;;;;;5064533;28;20047;-85
2023/07/16 13:55:05;;;;;;;2.85;1.00;;;;;;;;;;5066279;28;20028;-86
2023/07/16 13:57:30;;;;;;;3.47;1.05;;;;;;;;;;5055699;28;20134;-85
2023/07/16 14:00:01;;;;;;;3.43;1.20;;;;;;;;;;5049138;28;20040;-85
2023/07/16 14:02:32;;;;;;;2.40;1.00;;;;;;;;;;5056179;28;20062;-85
2023/07/16 14:04:58;;;;;;;2.97;1.00;;;;;;;;;;5069992;28;20356;-85
2023/07/16 14:07:24;;;;;;;3.28;1.00;;;;;;;;;;5058911;28;20265;-86
2023/07/16 14:09:50;;;;;;;3.10;1.17;;;;;;;;;;5077131;28;20032;-85
2023/07/16 14:12:15;;;;;;;3.22;1.08;;;;;;;;;;5065422;28;20062;-85
2023/07/16 14:14:40;;;;;;;2.78;1.00;;;;;;;;;;5060841;28;20483;-86
2023/07/16 14:17:06;;;;;;;3.72;0.85;;;;;;;;;;5067088;28;20166;-84
2023/07/16 14:19:34;;;;;;;2.78;1.10;;;;;;;;;;5069600;28;20063;-85
2023/07/16 14:21:59;;;;;;;5.43;1.17;;;;;;;;;;5067911;28;20062;-86
2023/07/16 14:24:25;;;;;;;3.05;1.10;;;;;;;;;;5074696;28;20036;-85
2023/07/16 14:26:50;;;;;;;3.28;1.10;;;;;;;;;;5075305;28;20032;-86
2023/07/16 14:29:15;;;;;;;2.30;0.80;;;;;;;;;;5059308;28;20032;-85
2023/07/16 14:31:44;;;;;;;3.17;1.00;;;;;;;;;;5069806;28;20032;-86
2023/07/16 14:34:09;;;;;;;3.72;1.20;;;;;;;;;;5059343;28;20086;-85
2023/07/16 14:36:35;;;;;;;3.10;1.00;;;;;;;;;;5059120;28;20485;-85
2023/07/16 14:39:00;;;;;;;2.92;0.98;;;;;;;;;;5067224;28;20047;-86
2023/07/16 14:41:28;;;;;;;4.53;0.90;;;;;;;;;;5077085;28;20055;-85
2023/07/16 14:43:54;;;;;;;2.90;1.10;;;;;;;;;;5051825;27;20039;-85
2023/07/16 14:46:19;;;;;;;2.40;0.80;;;;;;;;;;5059901;28;20051;-86
2023/07/16 14:48:46;;;;;;;3.45;1.00;;;;;;;;;;5078085;28;20824;-86
2023/07/16 14:51:12;;;;;;;4.00;1.00;;;;;;;;;;5058103;28;20048;-86
2023/07/16 14:53:38;;;;;;;3.00;0.90;;;;;;;;;;5073083;28;20112;-85
2023/07/16 14:56:05;;;;;;;3.65;1.10;;;;;;;;;;5074550;28;20274;-85
2023/07/16 14:58:32;;;;;;;3.08;0.90;;;;;;;;;;5070157;28;20029;-84
2023/07/16 15:01:07;;;;;;;4.95;1.23;;;;;;;;;;5068692;28;20036;-84
2023/07/16 15:03:40;;;;;;;3.42;0.98;;;;;;;;;;5067406;28;20369;-87
2023/07/16 15:06:06;;;;;;;3.30;1.10;;;;;;;;;;5059111;28;20098;-86
2023/07/16 15:08:31;;;;;;;3.20;1.10;;;;;;;;;;5075792;28;20044;-85
2023/07/16 15:10:58;;;;;;;2.35;0.90;;;;;;;;;;5036051;28;20461;-85
2023/07/16 15:13:25;;;;;;;4.65;1.00;;;;;;;;;;5056849;28;20097;-84
2023/07/16 15:15:54;;;;;;;4.30;1.35;;;;;;;;;;5057617;28;20361;-85
2023/07/16 15:18:21;;;;;;;4.20;1.20;;;;;;;;;;5052019;28;20041;-86
2023/07/16 15:20:47;;;;;;;3.70;1.20;;;;;;;;;;5073335;28;20115;-87
2023/07/16 15:23:37;;;;;;;3.78;1.00;;;;;;;;;;5062968;28;20112;-86
2023/07/16 15:26:06;;;;;;;9.07;1.25;;;;;;;;;;5079678;28;20032;-86